• Join FlightAware (Why Join?)
  • Login
  • US Flag 
03:41PM EDT


 

Airport Tracker/Info


-or-


 

Live Flight TrackerFlight Track Log ✈ JBU56 ✈ 19-Sep-2013 ✈ KIAD - KBOS

Flight Track Log - Related Links

Times and Time Zones

All times are in EDT time to prevent confusion due to time zone crossing. See the JBU56 flight status page for this flight to view local times or setup timezone preferences in your user account.

Time Position Orientation Groundspeed Altitude Reporting Facility
EDT Latitude Longitude Course Direction KTS MPH feet Rate Location/Type
09:09AM 38.9500 -77.5000 108° East 157 181 1,500  Level Potomac TRACON
09:10AM 38.9833 -77.5500 311° West 228 262 2,900 1,920 Climbing Potomac TRACON
09:11AM 39.0333 -77.6167 314° West 265 305 5,400 2,820 Climbing Potomac TRACON
09:12AM 39.5407 -76.4302 52° Northeast  Level Estimated
09:12AM 39.1000 -77.6333 349° North 273 314 8,400  Level Potomac TRACON
09:13AM 39.5103 -76.3539 117° Southeast  Level FlightAware Approximate
09:13AM 39.1833 -77.6000 17° North 320 368 10,000  Level Potomac TRACON
09:14AM 39.5501 -76.2852 41° Northeast  Level Estimated
09:14AM 39.1833 -77.4833 90° East 346 398 10,100  Level Potomac TRACON
09:15AM 39.5299 -76.2034 108° East  Level FlightAware Approximate
09:15AM 39.1833 -77.3667 90° East 348 400 10,100  Level Potomac TRACON
09:17AM 39.1097 -77.1431 113° Southeast 368 423 13,900 2,160 Climbing Washington Center
09:18AM 39.0906 -77.0117 101° East 373 429 16,600 2,280 Climbing Washington Center
09:19AM 39.1003 -76.8781 85° East 362 417 18,500 1,740 Climbing Washington Center
09:20AM 39.1097 -76.7658 84° East 368 423 20,200 1,920 Climbing Washington Center
09:21AM 39.1258 -76.5950 83° East 388 447 22,400 1,380 Climbing Washington Center
09:22AM 39.1394 -76.4506 83° East 402 463 23,000 240 Climbing Washington Center
09:23AM 39.1531 -76.3222 82° East 408 470 23,000 540 Level Washington Center
09:24AM 39.1619 -76.1725 86° East 408 470 24,100 1,320 Climbing Washington Center
09:25AM 39.1794 -76.0228 81° East 413 475 25,700 1,500 Climbing Washington Center
09:26AM 39.2069 -75.8728 77° East 419 482 27,100 1,200 Climbing Washington Center
09:27AM 39.2842 -75.7578 49° Northeast 405 466 28,100 1,080 Climbing Washington Center
09:28AM 39.3719 -75.6453 45° Northeast 422 486 29,300 1,440 Climbing Washington Center
09:29AM 39.4572 -75.5325 46° Northeast 427 491 31,000 840 Climbing Washington Center
09:30AM 39.5425 -75.4139 47° Northeast 433 498 31,000  Level Washington Center
09:33AM 39.7475 -75.1286 47° Northeast 444 511 31,000  Level New York Center
09:34AM 39.8353 -75.0097 46° Northeast 450 518 31,000  Level New York Center
09:35AM 39.9208 -74.8903 47° Northeast 450 518 31,000  Level New York Center
09:36AM 40.0089 -74.7547 50° Northeast 450 518 31,000  Level New York Center
09:37AM 40.0942 -74.6347 47° Northeast 450 518 31,000 -60 Level New York Center
09:38AM 40.1731 -74.5086 51° Northeast 450 518 30,900 -660 Descending New York Center
09:39AM 40.2542 -74.3825 50° Northeast 450 518 29,700 -1,200 Descending New York Center
09:40AM 40.3350 -74.2561 50° Northeast 450 518 28,500 -1,200 Descending New York Center
09:43AM 40.5694 -73.8989 49° Northeast 430 495 24,900 -1,140 Descending Boston Center
09:44AM 40.6417 -73.7858 50° Northeast 407 468 24,000 -480 Descending Boston Center
09:45AM 40.7225 -73.6558 51° Northeast 402 463 24,000  Level Boston Center
09:46AM 40.7967 -73.5367 51° Northeast 417 480 24,000  Level Boston Center
09:47AM 40.8728 -73.4200 49° Northeast 417 480 24,000 -360 Level Boston Center
09:48AM 40.9422 -73.3219 47° Northeast 417 480 23,300 -540 Descending Boston Center
09:49AM 41.0181 -73.2075 49° Northeast 411 473 23,000 -180 Descending Boston Center
09:50AM 41.0939 -73.0900 49° Northeast 411 473 23,000  Level Boston Center
09:51AM 41.1508 -72.9556 61° Northeast 411 473 23,000  Level Boston Center
09:52AM 41.2036 -72.8153 63° Northeast 411 473 23,000  Level Boston Center
09:53AM 41.2519 -72.6886 63° Northeast 416 479 23,000  Level Boston Center
09:54AM 41.3061 -72.5450 63° Northeast 427 491 23,000  Level Boston Center
09:55AM 41.3708 -72.3819 62° Northeast 422 486 23,000  Level Boston Center
09:56AM 41.4228 -72.2492 62° Northeast 416 479 23,000  Level Boston Center
09:57AM 41.4789 -72.1103 62° Northeast 410 472 23,000 -180 Level Boston Center
09:58AM 41.5325 -71.9686 63° Northeast 410 472 22,700 -1,260 Descending Boston Center
09:59AM 41.5839 -71.8294 64° Northeast 416 479 20,500 -2,040 Descending Boston Center
10:00AM 41.6311 -71.7125 62° Northeast 406 467 18,600 -1,740 Descending Boston Center
10:01AM 41.6864 -71.5672 63° Northeast 401 461 17,100 -2,160 Descending Boston Center
10:02AM 41.7333 -71.4442 63° Northeast 374 430 14,300 -2,400 Descending Boston Center
10:03AM 41.7800 -71.3208 63° Northeast 369 425 12,400 -1,680 Descending Boston Center
10:04AM 41.8247 -71.2031 63° Northeast 358 412 11,000 -720 Descending Boston Center
10:05AM 41.8672 -71.0964 62° Northeast 339 390 11,000  Level Boston Center
10:06AM 41.9167 -70.9833 60° Northeast 319 367 11,000  Level KA90
10:07AM 41.9667 -70.8667 60° Northeast 324 373 11,000  Level KA90
10:08AM 42.0047 -70.7861 58° Northeast 314 361 11,000 -840 Level Boston Center
10:09AM 42.0556 -70.7008 51° Northeast 309 356 9,500 -1,500 Descending Boston Center
10:10AM 42.1108 -70.6267 45° Northeast 291 335 8,000 -1,380 Descending Boston Center
10:11AM 42.1875 -70.5992 15° North 270 311 6,800 -1,140 Descending Boston Center
10:12AM 42.2625 -70.5914 North 264 304 5,800 -1,080 Descending Boston Center
10:13AM 42.3150 -70.6206 338° Northwest 252 290 4,800 -960 Descending Boston Center
10:14AM 42.4000 -70.6833 331° Northwest 254 292 3,800 -840 Descending KA90
10:15AM 42.4375 -70.7325 316° Northwest 252 290 3,100 -480 Descending Boston Center
10:16AM 42.4761 -70.8075 305° West 247 284 3,000 -300 Descending Boston Center
10:17AM 42.5000 -70.8833 293° West 168 193 2,600 -660 Descending KA90
10:18AM 42.4667 -70.9500 236° Southwest 174 200 1,700 -720 Descending KA90
10:19AM 42.4333 -70.9667 200° South 167 192 1,200 -600 Descending KA90
10:20AM 42.4000 -70.9833 200° South 141 162 500 -720 Descending KA90